CheckWX is a tool to help pilots better visualize weather data.  It is not intended as a substitute for an official pre-flight weather briefing.

18:21:17 UTC

KAMA METAR
Rick Husband Amarillo International Airport
Amarillo, Texas, USA
Current

28 mins ago

KAMA 201753Z 16010KT 10SM -RA FEW075 OVC110 22/18 A3001 RMK AO2 RAB31 SLP122 P0000 60025 T02170183 10233 20167 55005
Observed
Sep-20 @ 17:53 UTC
Wind
  • 160° at 10 KTS
Visibility
10 SM
Flight Rules
VFR
Conditions
Light Rain
Cloud Levels
  • Few at 7,500' AGL
  • Overcast at 11,000' AGL
Temperature
22°C / 72°F
Dewpoint
18°C / 64°F
Humidity
78%
Altimeter
30.01" Hg
Pressure
1016.22 hPa
Current Rain
0.01"
Previous

1 hour ago

KAMA 201653Z 15011KT 10SM SCT110 23/17 A3001 RMK AO2 SLP117 T02280167
Observed
Sep-20 @ 16:53 UTC
Wind
  • 150° at 11 KTS
Visibility
10 SM
Flight Rules
VFR
Cloud Levels
  • Scattered at 11,000' AGL
Temperature
23°C / 73°F
Dewpoint
17°C / 63°F
Humidity
69%
Altimeter
30.01" Hg
Pressure
1016.22 hPa
Previous

2 hours ago

KAMA 201553Z 12010KT 10SM SCT085 BKN100 20/17 A3002 RMK AO2 SLP125 P0001 T02000167
Observed
Sep-20 @ 15:53 UTC
Wind
  • 120° at 10 KTS
Visibility
10 SM
Flight Rules
VFR
Cloud Levels
  • Scattered at 8,500' AGL
  • Broken at 10,000' AGL
Temperature
20°C / 68°F
Dewpoint
17°C / 63°F
Humidity
83%
Altimeter
30.02" Hg
Pressure
1016.62 hPa
Current Rain
0.01"